Terminal Aerodrome Forecast
Issued by NWS Twin Cities, MN

Home | Current Version | Previous Version | Text Only | Print | Product List | Glossary On
Versions: 1 2 3 4 5 6 7 8 9 10 11 12 13 14 15 16 17 18 19 20 21
832
FTUS43 KMPX 211426 AAA
TAFEAU
TAF AMD
KEAU 211426Z 2114/2212 08006KT 1SM -RA BR OVC002
     FM211800 VRB03KT 2SM -DZ BR OVC004
     FM220200 VRB02KT 1/2SM FG VV002=

USA.gov is the U.S. government's official web portal to all federal, state and local government web resources and services.